This is the latest recevied weather packets stored in our database for station/object G6LTT. If no packets are shown the sender has not sent any weather packets the latest 10 day(s).
| Time | Temp. | Humidity | Pressure | Rain* | Wind** | Luminosity | Snow |
|---|---|---|---|---|---|---|---|
| 1777966693 | 11.11° C | 82% | 1041.7 hPa | 0 mm | - | - | - |
| 1777964403 | 10.56° C | 85% | 1041.8 hPa | 0 mm | - | - | - |
| 1777961883 | 10° C | 86% | 1041.7 hPa | 0 mm | - | - | - |
| 1777957743 | 9.44° C | 89% | 1042 hPa | 0 mm | - | - | - |
| 1777955895 | 9.44° C | 90% | 1042 hPa | 0 mm | - | - | - |
| 1777945503 | 11.11° C | 85% | 1042.4 hPa | 0 mm | - | - | - |
| 1777944423 | 11.11° C | 85% | 1042.4 hPa | 0 mm | - | - | - |
| 1777943883 | 11.11° C | 85% | 1042.4 hPa | 0 mm | - | - | - |
| 1777941903 | 11.67° C | 87% | 1042.5 hPa | 0 mm | - | - | - |
| 1777937763 | 11.67° C | 82% | 1043 hPa | 0 mm | - | - | - |
| 1777937223 | 11.67° C | 82% | 1043.1 hPa | 0 mm | - | - | - |
| 1777936143 | 11.67° C | 82% | 1042.9 hPa | 0 mm | - | - | - |
| 1777935603 | 11.67° C | 82% | 1043.1 hPa | 0 mm | - | - | - |
| 1777935243 | 11.67° C | 82% | 1043.1 hPa | 0 mm | - | - | - |
| 1777932003 | 12.22° C | 80% | 1043.2 hPa | 0 mm | - | - | - |
| 1777926423 | 12.78° C | 79% | 1043.3 hPa | 0 mm | - | - | - |
| 1777924576 | 13.33° C | 78% | 1043 hPa | 0 mm | - | - | - |
| 1777921203 | 13.89° C | 77% | 1042.7 hPa | 0 mm | - | - | - |
| 1777920843 | 13.89° C | 76% | 1042.6 hPa | 0 mm | - | - | - |
| 1777918143 | 14.44° C | 75% | 1042.2 hPa | 0 mm | - | - | - |
| 1777916163 | 14.44° C | 74% | 1042.5 hPa | 0 mm | - | - | - |
| 1777909093 | 13.33° C | 78% | 1043 hPa | 0 mm | - | - | - |
| 1777905363 | 14.44° C | 76% | 1043.1 hPa | 0 mm | - | - | - |
| 1777904414 | 14.44° C | 76% | 1042.9 hPa | 0 mm | - | - | - |
| 1777899734 | 15.56° C | 71% | 1042.7 hPa | 0 mm | - | - | - |
* Rain latest hour (hover to see other rain measurements)
** Current wind speed in m/s (hover to see current wind gust speed)